METAR Formatted Surface Weather Observation
Issued by NWS

Home | Current Version | Previous Version | Text Only | Print | Product List | Glossary On
Versions: 1 2 3 4 5 6 7 8 9 10 11 12 13 14 15 16 17 18 19 20
683
SAUS41 KLWX 211658 COR
MTRNAK
METAR KNAK 211654Z AUTO 19011KT 10SM CLR 16/01 A3009 RMK AO2 SLP191
T01560006



USA.gov is the U.S. government's official web portal to all federal, state and local government web resources and services.